sensor_id;sensor_type;location;lat;lon;timestamp;P1;durP1;ratioP1;P2;durP2;ratioP2
23304;SDS011;11821;51.456;8.844;2023-11-19T00:02:12;0.50;;;0.50;;
23304;SDS011;11821;51.456;8.844;2023-11-19T00:04:39;0.77;;;0.77;;
23304;SDS011;11821;51.456;8.844;2023-11-19T00:07:06;0.73;;;0.70;;
23304;SDS011;11821;51.456;8.844;2023-11-19T00:09:33;0.50;;;0.50;;
23304;SDS011;11821;51.456;8.844;2023-11-19T00:12:02;0.80;;;0.70;;
23304;SDS011;11821;51.456;8.844;2023-11-19T00:14:29;0.95;;;0.68;;
23304;SDS011;11821;51.456;8.844;2023-11-19T00:16:56;1.15;;;0.70;;
23304;SDS011;11821;51.456;8.844;2023-11-19T00:19:22;0.65;;;0.65;;
23304;SDS011;11821;51.456;8.844;2023-11-19T00:21:49;0.80;;;0.50;;
23304;SDS011;11821;51.456;8.844;2023-11-19T00:24:16;0.77;;;0.70;;
23304;SDS011;11821;51.456;8.844;2023-11-19T00:26:43;0.57;;;0.57;;
23304;SDS011;11821;51.456;8.844;2023-11-19T00:29:10;0.80;;;0.70;;
23304;SDS011;11821;51.456;8.844;2023-11-19T00:31:36;0.60;;;0.60;;
23304;SDS011;11821;51.456;8.844;2023-11-19T00:34:04;0.60;;;0.40;;
23304;SDS011;11821;51.456;8.844;2023-11-19T00:36:31;0.70;;;0.40;;
23304;SDS011;11821;51.456;8.844;2023-11-19T00:38:58;0.47;;;0.45;;
23304;SDS011;11821;51.456;8.844;2023-11-19T00:41:24;0.60;;;0.60;;
23304;SDS011;11821;51.456;8.844;2023-11-19T00:43:51;2.47;;;0.90;;
23304;SDS011;11821;51.456;8.844;2023-11-19T00:46:17;0.60;;;0.50;;
23304;SDS011;11821;51.456;8.844;2023-11-19T00:48:44;0.47;;;0.43;;
23304;SDS011;11821;51.456;8.844;2023-11-19T00:51:12;0.63;;;0.40;;
23304;SDS011;11821;51.456;8.844;2023-11-19T00:53:39;0.50;;;0.40;;
23304;SDS011;11821;51.456;8.844;2023-11-19T00:56:06;3.35;;;0.40;;
23304;SDS011;11821;51.456;8.844;2023-11-19T00:58:34;0.38;;;0.38;;
23304;SDS011;11821;51.456;8.844;2023-11-19T01:01:00;0.50;;;0.50;;
23304;SDS011;11821;51.456;8.844;2023-11-19T01:03:27;0.80;;;0.40;;
23304;SDS011;11821;51.456;8.844;2023-11-19T01:05:53;0.90;;;0.60;;
23304;SDS011;11821;51.456;8.844;2023-11-19T01:08:20;0.40;;;0.40;;
23304;SDS011;11821;51.456;8.844;2023-11-19T01:10:47;0.38;;;0.38;;
23304;SDS011;11821;51.456;8.844;2023-11-19T01:13:13;0.35;;;0.35;;
23304;SDS011;11821;51.456;8.844;2023-11-19T01:15:39;0.40;;;0.40;;
23304;SDS011;11821;51.456;8.844;2023-11-19T01:18:07;0.65;;;0.52;;
23304;SDS011;11821;51.456;8.844;2023-11-19T01:20:34;0.60;;;0.40;;
23304;SDS011;11821;51.456;8.844;2023-11-19T01:23:01;0.40;;;0.40;;
23304;SDS011;11821;51.456;8.844;2023-11-19T01:25:27;0.75;;;0.45;;
23304;SDS011;11821;51.456;8.844;2023-11-19T01:27:54;0.30;;;0.30;;
23304;SDS011;11821;51.456;8.844;2023-11-19T01:30:24;0.50;;;0.50;;
23304;SDS011;11821;51.456;8.844;2023-11-19T01:32:50;0.63;;;0.40;;
23304;SDS011;11821;51.456;8.844;2023-11-19T01:35:17;0.77;;;0.65;;
23304;SDS011;11821;51.456;8.844;2023-11-19T01:37:43;0.57;;;0.57;;
23304;SDS011;11821;51.456;8.844;2023-11-19T01:40:10;0.50;;;0.50;;
23304;SDS011;11821;51.456;8.844;2023-11-19T01:42:37;0.85;;;0.70;;
23304;SDS011;11821;51.456;8.844;2023-11-19T01:45:04;0.40;;;0.40;;
23304;SDS011;11821;51.456;8.844;2023-11-19T01:47:33;0.50;;;0.50;;
23304;SDS011;11821;51.456;8.844;2023-11-19T01:49:59;0.60;;;0.50;;
23304;SDS011;11821;51.456;8.844;2023-11-19T01:52:26;0.50;;;0.50;;
23304;SDS011;11821;51.456;8.844;2023-11-19T01:54:53;0.43;;;0.43;;
23304;SDS011;11821;51.456;8.844;2023-11-19T01:57:21;0.50;;;0.50;;
23304;SDS011;11821;51.456;8.844;2023-11-19T01:59:51;0.55;;;0.55;;
23304;SDS011;11821;51.456;8.844;2023-11-19T02:02:19;0.88;;;0.68;;
23304;SDS011;11821;51.456;8.844;2023-11-19T02:04:46;0.50;;;0.50;;
23304;SDS011;11821;51.456;8.844;2023-11-19T02:07:13;1.10;;;0.60;;
23304;SDS011;11821;51.456;8.844;2023-11-19T02:09:43;0.50;;;0.50;;
23304;SDS011;11821;51.456;8.844;2023-11-19T02:12:09;1.35;;;0.70;;
23304;SDS011;11821;51.456;8.844;2023-11-19T02:14:37;1.25;;;0.57;;
23304;SDS011;11821;51.456;8.844;2023-11-19T02:17:04;0.30;;;0.30;;
23304;SDS011;11821;51.456;8.844;2023-11-19T02:19:30;0.73;;;0.70;;
23304;SDS011;11821;51.456;8.844;2023-11-19T02:21:57;0.57;;;0.55;;
23304;SDS011;11821;51.456;8.844;2023-11-19T02:24:23;2.22;;;0.38;;
23304;SDS011;11821;51.456;8.844;2023-11-19T02:27:02;1.05;;;0.80;;
23304;SDS011;11821;51.456;8.844;2023-11-19T02:29:31;2.08;;;0.68;;
23304;SDS011;11821;51.456;8.844;2023-11-19T02:31:57;2.10;;;0.70;;
23304;SDS011;11821;51.456;8.844;2023-11-19T02:34:24;0.38;;;0.35;;
23304;SDS011;11821;51.456;8.844;2023-11-19T02:36:50;0.75;;;0.50;;
23304;SDS011;11821;51.456;8.844;2023-11-19T02:39:19;1.75;;;0.50;;
23304;SDS011;11821;51.456;8.844;2023-11-19T02:41:47;0.63;;;0.60;;
23304;SDS011;11821;51.456;8.844;2023-11-19T02:44:17;0.57;;;0.50;;
23304;SDS011;11821;51.456;8.844;2023-11-19T02:46:43;0.50;;;0.50;;
23304;SDS011;11821;51.456;8.844;2023-11-19T02:49:11;0.95;;;0.65;;
23304;SDS011;11821;51.456;8.844;2023-11-19T02:51:38;0.40;;;0.40;;
23304;SDS011;11821;51.456;8.844;2023-11-19T02:54:04;0.60;;;0.50;;
23304;SDS011;11821;51.456;8.844;2023-11-19T02:56:31;1.38;;;0.45;;
23304;SDS011;11821;51.456;8.844;2023-11-19T02:59:01;1.15;;;0.85;;
23304;SDS011;11821;51.456;8.844;2023-11-19T03:01:40;0.60;;;0.60;;
23304;SDS011;11821;51.456;8.844;2023-11-19T03:04:09;1.15;;;0.70;;
23304;SDS011;11821;51.456;8.844;2023-11-19T03:06:37;0.70;;;0.63;;
23304;SDS011;11821;51.456;8.844;2023-11-19T03:09:04;0.70;;;0.70;;
23304;SDS011;11821;51.456;8.844;2023-11-19T03:11:35;0.40;;;0.40;;
23304;SDS011;11821;51.456;8.844;2023-11-19T03:14:02;0.60;;;0.60;;
23304;SDS011;11821;51.456;8.844;2023-11-19T03:16:29;0.68;;;0.60;;
23304;SDS011;11821;51.456;8.844;2023-11-19T03:18:56;1.10;;;0.90;;
23304;SDS011;11821;51.456;8.844;2023-11-19T03:21:29;0.68;;;0.65;;
23304;SDS011;11821;51.456;8.844;2023-11-19T03:24:00;1.35;;;0.73;;
23304;SDS011;11821;51.456;8.844;2023-11-19T03:26:27;1.90;;;0.77;;
23304;SDS011;11821;51.456;8.844;2023-11-19T03:28:53;1.75;;;0.90;;
23304;SDS011;11821;51.456;8.844;2023-11-19T03:31:20;0.80;;;0.80;;
23304;SDS011;11821;51.456;8.844;2023-11-19T03:33:46;1.00;;;0.75;;
23304;SDS011;11821;51.456;8.844;2023-11-19T03:36:12;3.10;;;0.80;;
23304;SDS011;11821;51.456;8.844;2023-11-19T03:38:39;0.80;;;0.80;;
23304;SDS011;11821;51.456;8.844;2023-11-19T03:41:11;2.75;;;0.60;;
23304;SDS011;11821;51.456;8.844;2023-11-19T03:43:38;0.63;;;0.57;;
23304;SDS011;11821;51.456;8.844;2023-11-19T03:46:15;0.70;;;0.57;;
23304;SDS011;11821;51.456;8.844;2023-11-19T03:48:41;0.43;;;0.43;;
23304;SDS011;11821;51.456;8.844;2023-11-19T03:51:08;0.50;;;0.40;;
23304;SDS011;11821;51.456;8.844;2023-11-19T03:53:35;0.40;;;0.40;;
23304;SDS011;11821;51.456;8.844;2023-11-19T03:56:01;1.65;;;0.60;;
23304;SDS011;11821;51.456;8.844;2023-11-19T03:58:29;0.45;;;0.32;;
23304;SDS011;11821;51.456;8.844;2023-11-19T04:00:55;1.10;;;0.35;;
23304;SDS011;11821;51.456;8.844;2023-11-19T04:03:22;0.50;;;0.40;;
23304;SDS011;11821;51.456;8.844;2023-11-19T04:05:48;0.40;;;0.40;;
23304;SDS011;11821;51.456;8.844;2023-11-19T04:08:15;3.65;;;0.50;;
23304;SDS011;11821;51.456;8.844;2023-11-19T04:10:42;0.68;;;0.68;;
23304;SDS011;11821;51.456;8.844;2023-11-19T04:13:08;0.75;;;0.60;;
23304;SDS011;11821;51.456;8.844;2023-11-19T04:15:36;0.70;;;0.70;;
23304;SDS011;11821;51.456;8.844;2023-11-19T04:18:02;0.80;;;0.80;;
23304;SDS011;11821;51.456;8.844;2023-11-19T04:20:29;7.68;;;1.00;;
23304;SDS011;11821;51.456;8.844;2023-11-19T04:22:57;5.10;;;1.55;;
23304;SDS011;11821;51.456;8.844;2023-11-19T04:25:26;2.03;;;1.23;;
23304;SDS011;11821;51.456;8.844;2023-11-19T04:27:52;2.45;;;1.60;;
23304;SDS011;11821;51.456;8.844;2023-11-19T04:30:19;4.18;;;2.13;;
23304;SDS011;11821;51.456;8.844;2023-11-19T04:32:45;6.47;;;1.98;;
23304;SDS011;11821;51.456;8.844;2023-11-19T04:35:15;8.93;;;2.70;;
23304;SDS011;11821;51.456;8.844;2023-11-19T04:37:42;7.03;;;2.55;;
23304;SDS011;11821;51.456;8.844;2023-11-19T04:40:09;9.88;;;3.33;;
23304;SDS011;11821;51.456;8.844;2023-11-19T04:42:37;7.95;;;3.05;;
23304;SDS011;11821;51.456;8.844;2023-11-19T04:45:07;11.77;;;3.47;;
23304;SDS011;11821;51.456;8.844;2023-11-19T04:47:38;12.02;;;3.50;;
23304;SDS011;11821;51.456;8.844;2023-11-19T04:50:05;10.95;;;3.53;;
23304;SDS011;11821;51.456;8.844;2023-11-19T04:52:31;13.75;;;4.22;;
23304;SDS011;11821;51.456;8.844;2023-11-19T04:54:58;9.93;;;3.95;;
23304;SDS011;11821;51.456;8.844;2023-11-19T04:57:24;9.95;;;3.90;;
23304;SDS011;11821;51.456;8.844;2023-11-19T04:59:51;17.08;;;4.65;;
23304;SDS011;11821;51.456;8.844;2023-11-19T05:02:17;22.00;;;5.63;;
23304;SDS011;11821;51.456;8.844;2023-11-19T05:04:44;12.82;;;4.72;;
23304;SDS011;11821;51.456;8.844;2023-11-19T05:07:12;8.27;;;3.78;;
23304;SDS011;11821;51.456;8.844;2023-11-19T05:09:38;13.30;;;4.90;;
23304;SDS011;11821;51.456;8.844;2023-11-19T05:12:05;8.50;;;3.88;;
23304;SDS011;11821;51.456;8.844;2023-11-19T05:14:34;10.35;;;3.78;;
23304;SDS011;11821;51.456;8.844;2023-11-19T05:17:00;9.65;;;3.40;;
23304;SDS011;11821;51.456;8.844;2023-11-19T05:19:27;15.40;;;3.88;;
23304;SDS011;11821;51.456;8.844;2023-11-19T05:21:53;19.63;;;4.03;;
23304;SDS011;11821;51.456;8.844;2023-11-19T05:24:20;16.98;;;3.03;;
23304;SDS011;11821;51.456;8.844;2023-11-19T05:26:46;11.38;;;3.08;;
23304;SDS011;11821;51.456;8.844;2023-11-19T05:29:13;10.10;;;3.25;;
23304;SDS011;11821;51.456;8.844;2023-11-19T05:31:39;18.10;;;3.70;;
23304;SDS011;11821;51.456;8.844;2023-11-19T05:34:06;11.60;;;3.10;;
23304;SDS011;11821;51.456;8.844;2023-11-19T05:36:32;12.80;;;2.55;;
23304;SDS011;11821;51.456;8.844;2023-11-19T05:38:59;12.32;;;2.50;;
23304;SDS011;11821;51.456;8.844;2023-11-19T05:41:25;10.65;;;2.10;;
23304;SDS011;11821;51.456;8.844;2023-11-19T05:43:52;8.85;;;2.30;;
23304;SDS011;11821;51.456;8.844;2023-11-19T05:46:18;9.02;;;2.63;;
23304;SDS011;11821;51.456;8.844;2023-11-19T05:48:45;11.55;;;2.67;;
23304;SDS011;11821;51.456;8.844;2023-11-19T05:51:12;13.82;;;2.78;;
23304;SDS011;11821;51.456;8.844;2023-11-19T05:53:40;15.57;;;2.35;;
23304;SDS011;11821;51.456;8.844;2023-11-19T05:56:08;10.73;;;2.10;;
23304;SDS011;11821;51.456;8.844;2023-11-19T05:58:35;11.05;;;2.25;;
23304;SDS011;11821;51.456;8.844;2023-11-19T06:01:01;12.60;;;2.33;;
23304;SDS011;11821;51.456;8.844;2023-11-19T06:03:28;11.70;;;1.90;;
23304;SDS011;11821;51.456;8.844;2023-11-19T06:05:55;12.35;;;1.90;;
23304;SDS011;11821;51.456;8.844;2023-11-19T06:08:21;14.40;;;2.08;;
23304;SDS011;11821;51.456;8.844;2023-11-19T06:10:48;12.00;;;2.45;;
23304;SDS011;11821;51.456;8.844;2023-11-19T06:13:16;12.45;;;2.00;;
23304;SDS011;11821;51.456;8.844;2023-11-19T06:15:43;10.52;;;1.80;;
23304;SDS011;11821;51.456;8.844;2023-11-19T06:18:09;10.73;;;1.98;;
23304;SDS011;11821;51.456;8.844;2023-11-19T06:20:37;16.83;;;2.45;;
23304;SDS011;11821;51.456;8.844;2023-11-19T06:23:04;15.13;;;2.63;;
23304;SDS011;11821;51.456;8.844;2023-11-19T06:25:30;12.02;;;2.47;;
23304;SDS011;11821;51.456;8.844;2023-11-19T06:27:57;17.60;;;3.42;;
23304;SDS011;11821;51.456;8.844;2023-11-19T06:30:24;14.35;;;3.85;;
23304;SDS011;11821;51.456;8.844;2023-11-19T06:32:51;18.45;;;2.50;;
23304;SDS011;11821;51.456;8.844;2023-11-19T06:35:17;15.02;;;2.90;;
23304;SDS011;11821;51.456;8.844;2023-11-19T06:37:44;15.05;;;2.47;;
23304;SDS011;11821;51.456;8.844;2023-11-19T06:40:10;14.20;;;2.55;;
23304;SDS011;11821;51.456;8.844;2023-11-19T06:42:37;10.15;;;2.10;;
23304;SDS011;11821;51.456;8.844;2023-11-19T06:45:04;16.08;;;2.45;;
23304;SDS011;11821;51.456;8.844;2023-11-19T06:47:31;14.30;;;2.60;;
23304;SDS011;11821;51.456;8.844;2023-11-19T06:49:58;15.25;;;2.42;;
23304;SDS011;11821;51.456;8.844;2023-11-19T06:52:24;22.42;;;3.05;;
23304;SDS011;11821;51.456;8.844;2023-11-19T06:54:51;20.40;;;2.10;;
23304;SDS011;11821;51.456;8.844;2023-11-19T06:57:17;13.73;;;2.40;;
23304;SDS011;11821;51.456;8.844;2023-11-19T06:59:45;15.20;;;1.92;;
23304;SDS011;11821;51.456;8.844;2023-11-19T07:02:12;18.23;;;2.28;;
23304;SDS011;11821;51.456;8.844;2023-11-19T07:04:39;18.27;;;3.28;;
23304;SDS011;11821;51.456;8.844;2023-11-19T07:07:06;14.90;;;3.15;;
23304;SDS011;11821;51.456;8.844;2023-11-19T07:09:32;11.02;;;2.10;;
23304;SDS011;11821;51.456;8.844;2023-11-19T07:11:59;9.50;;;2.30;;
23304;SDS011;11821;51.456;8.844;2023-11-19T07:14:27;13.32;;;3.15;;
23304;SDS011;11821;51.456;8.844;2023-11-19T07:16:54;15.00;;;3.10;;
23304;SDS011;11821;51.456;8.844;2023-11-19T07:19:21;16.30;;;2.30;;
23304;SDS011;11821;51.456;8.844;2023-11-19T07:21:47;16.55;;;2.00;;
23304;SDS011;11821;51.456;8.844;2023-11-19T07:24:14;8.70;;;1.98;;
23304;SDS011;11821;51.456;8.844;2023-11-19T07:26:45;14.48;;;2.33;;
23304;SDS011;11821;51.456;8.844;2023-11-19T07:29:15;17.55;;;2.50;;
23304;SDS011;11821;51.456;8.844;2023-11-19T07:31:42;16.52;;;2.42;;
23304;SDS011;11821;51.456;8.844;2023-11-19T07:34:12;14.88;;;2.40;;
23304;SDS011;11821;51.456;8.844;2023-11-19T07:36:39;10.65;;;2.17;;
23304;SDS011;11821;51.456;8.844;2023-11-19T07:39:06;15.40;;;2.67;;
23304;SDS011;11821;51.456;8.844;2023-11-19T07:41:33;17.00;;;2.85;;
23304;SDS011;11821;51.456;8.844;2023-11-19T07:44:04;16.63;;;2.35;;
23304;SDS011;11821;51.456;8.844;2023-11-19T07:46:32;9.65;;;2.53;;
23304;SDS011;11821;51.456;8.844;2023-11-19T07:48:58;13.60;;;2.17;;
23304;SDS011;11821;51.456;8.844;2023-11-19T07:51:25;12.93;;;2.42;;
23304;SDS011;11821;51.456;8.844;2023-11-19T07:53:51;12.20;;;2.30;;
23304;SDS011;11821;51.456;8.844;2023-11-19T07:56:18;13.73;;;2.40;;
23304;SDS011;11821;51.456;8.844;2023-11-19T07:58:44;15.43;;;2.97;;
23304;SDS011;11821;51.456;8.844;2023-11-19T08:01:11;13.07;;;2.13;;
23304;SDS011;11821;51.456;8.844;2023-11-19T08:03:39;11.82;;;2.38;;
23304;SDS011;11821;51.456;8.844;2023-11-19T08:06:05;13.38;;;1.65;;
23304;SDS011;11821;51.456;8.844;2023-11-19T08:08:32;17.95;;;3.55;;
23304;SDS011;11821;51.456;8.844;2023-11-19T08:11:00;18.50;;;2.97;;
23304;SDS011;11821;51.456;8.844;2023-11-19T08:13:26;16.33;;;2.65;;
23304;SDS011;11821;51.456;8.844;2023-11-19T08:15:53;13.55;;;2.35;;
23304;SDS011;11821;51.456;8.844;2023-11-19T08:18:19;16.00;;;2.70;;
23304;SDS011;11821;51.456;8.844;2023-11-19T08:20:46;11.27;;;2.10;;
23304;SDS011;11821;51.456;8.844;2023-11-19T08:23:18;15.32;;;2.42;;
23304;SDS011;11821;51.456;8.844;2023-11-19T08:25:44;13.45;;;2.42;;
23304;SDS011;11821;51.456;8.844;2023-11-19T08:28:11;13.20;;;2.33;;
23304;SDS011;11821;51.456;8.844;2023-11-19T08:30:38;16.45;;;2.00;;
23304;SDS011;11821;51.456;8.844;2023-11-19T08:33:04;14.95;;;2.08;;
23304;SDS011;11821;51.456;8.844;2023-11-19T08:35:32;9.98;;;2.00;;
23304;SDS011;11821;51.456;8.844;2023-11-19T08:37:59;20.80;;;3.33;;
23304;SDS011;11821;51.456;8.844;2023-11-19T08:40:25;8.73;;;2.15;;
23304;SDS011;11821;51.456;8.844;2023-11-19T08:42:52;10.10;;;2.28;;
23304;SDS011;11821;51.456;8.844;2023-11-19T08:45:18;16.90;;;2.50;;
23304;SDS011;11821;51.456;8.844;2023-11-19T08:47:45;10.20;;;2.28;;
23304;SDS011;11821;51.456;8.844;2023-11-19T08:50:11;12.65;;;2.22;;
23304;SDS011;11821;51.456;8.844;2023-11-19T08:52:38;10.27;;;1.90;;
23304;SDS011;11821;51.456;8.844;2023-11-19T08:55:04;13.75;;;1.75;;
23304;SDS011;11821;51.456;8.844;2023-11-19T08:57:31;8.75;;;1.95;;
23304;SDS011;11821;51.456;8.844;2023-11-19T09:00:01;14.73;;;2.15;;
23304;SDS011;11821;51.456;8.844;2023-11-19T09:02:33;15.88;;;2.17;;
23304;SDS011;11821;51.456;8.844;2023-11-19T09:05:00;15.55;;;2.50;;
23304;SDS011;11821;51.456;8.844;2023-11-19T09:07:27;10.02;;;2.88;;
23304;SDS011;11821;51.456;8.844;2023-11-19T09:09:53;10.38;;;2.15;;
23304;SDS011;11821;51.456;8.844;2023-11-19T09:12:20;14.05;;;3.03;;
23304;SDS011;11821;51.456;8.844;2023-11-19T09:14:47;8.48;;;2.35;;
23304;SDS011;11821;51.456;8.844;2023-11-19T09:17:14;14.38;;;3.25;;
23304;SDS011;11821;51.456;8.844;2023-11-19T09:19:41;14.10;;;2.88;;
23304;SDS011;11821;51.456;8.844;2023-11-19T09:22:07;14.07;;;2.85;;
23304;SDS011;11821;51.456;8.844;2023-11-19T09:24:34;14.73;;;2.42;;
23304;SDS011;11821;51.456;8.844;2023-11-19T09:27:00;16.08;;;2.17;;
23304;SDS011;11821;51.456;8.844;2023-11-19T09:29:27;16.60;;;3.03;;
23304;SDS011;11821;51.456;8.844;2023-11-19T09:31:53;7.03;;;2.15;;
23304;SDS011;11821;51.456;8.844;2023-11-19T09:34:20;10.30;;;2.05;;
23304;SDS011;11821;51.456;8.844;2023-11-19T09:36:46;10.60;;;2.25;;
23304;SDS011;11821;51.456;8.844;2023-11-19T09:39:13;18.42;;;2.38;;
23304;SDS011;11821;51.456;8.844;2023-11-19T09:41:44;16.88;;;2.80;;
23304;SDS011;11821;51.456;8.844;2023-11-19T09:44:10;15.50;;;2.60;;
23304;SDS011;11821;51.456;8.844;2023-11-19T09:46:37;12.15;;;2.35;;
23304;SDS011;11821;51.456;8.844;2023-11-19T09:49:04;18.35;;;2.65;;
23304;SDS011;11821;51.456;8.844;2023-11-19T09:51:33;15.10;;;3.30;;
23304;SDS011;11821;51.456;8.844;2023-11-19T09:53:59;8.23;;;2.25;;
23304;SDS011;11821;51.456;8.844;2023-11-19T09:56:26;13.85;;;2.13;;
23304;SDS011;11821;51.456;8.844;2023-11-19T09:58:53;17.63;;;3.60;;
23304;SDS011;11821;51.456;8.844;2023-11-19T10:01:19;15.65;;;2.03;;
23304;SDS011;11821;51.456;8.844;2023-11-19T10:03:47;11.15;;;2.20;;
23304;SDS011;11821;51.456;8.844;2023-11-19T10:06:14;15.15;;;2.28;;
23304;SDS011;11821;51.456;8.844;2023-11-19T10:08:41;17.40;;;2.85;;
23304;SDS011;11821;51.456;8.844;2023-11-19T10:11:08;18.25;;;2.65;;
23304;SDS011;11821;51.456;8.844;2023-11-19T10:13:37;8.90;;;2.13;;
23304;SDS011;11821;51.456;8.844;2023-11-19T10:16:04;15.60;;;2.05;;
23304;SDS011;11821;51.456;8.844;2023-11-19T10:18:34;14.15;;;2.40;;
23304;SDS011;11821;51.456;8.844;2023-11-19T10:21:04;13.30;;;2.65;;
23304;SDS011;11821;51.456;8.844;2023-11-19T10:23:53;12.10;;;2.65;;
23304;SDS011;11821;51.456;8.844;2023-11-19T10:26:20;13.98;;;2.88;;
23304;SDS011;11821;51.456;8.844;2023-11-19T10:28:47;17.77;;;2.80;;
23304;SDS011;11821;51.456;8.844;2023-11-19T10:31:14;19.23;;;3.03;;
23304;SDS011;11821;51.456;8.844;2023-11-19T10:33:40;15.90;;;3.28;;
23304;SDS011;11821;51.456;8.844;2023-11-19T10:36:07;15.60;;;2.67;;
23304;SDS011;11821;51.456;8.844;2023-11-19T10:38:35;11.57;;;3.05;;
23304;SDS011;11821;51.456;8.844;2023-11-19T10:41:02;13.88;;;2.72;;
23304;SDS011;11821;51.456;8.844;2023-11-19T10:43:29;16.75;;;2.45;;
23304;SDS011;11821;51.456;8.844;2023-11-19T10:46:12;11.18;;;2.55;;
23304;SDS011;11821;51.456;8.844;2023-11-19T10:48:39;14.38;;;2.75;;
23304;SDS011;11821;51.456;8.844;2023-11-19T10:51:06;17.95;;;2.60;;
23304;SDS011;11821;51.456;8.844;2023-11-19T10:53:33;14.75;;;2.78;;
23304;SDS011;11821;51.456;8.844;2023-11-19T10:56:02;17.40;;;3.13;;
23304;SDS011;11821;51.456;8.844;2023-11-19T10:58:31;10.10;;;2.70;;
23304;SDS011;11821;51.456;8.844;2023-11-19T11:01:03;20.15;;;2.33;;
23304;SDS011;11821;51.456;8.844;2023-11-19T11:03:42;15.23;;;3.15;;
23304;SDS011;11821;51.456;8.844;2023-11-19T11:06:09;15.25;;;2.28;;
23304;SDS011;11821;51.456;8.844;2023-11-19T11:08:39;18.30;;;3.50;;
23304;SDS011;11821;51.456;8.844;2023-11-19T11:11:06;15.13;;;2.55;;
23304;SDS011;11821;51.456;8.844;2023-11-19T11:13:33;22.45;;;3.42;;
23304;SDS011;11821;51.456;8.844;2023-11-19T11:16:00;13.45;;;2.63;;
23304;SDS011;11821;51.456;8.844;2023-11-19T11:18:26;17.15;;;2.95;;
23304;SDS011;11821;51.456;8.844;2023-11-19T11:20:54;16.45;;;2.50;;
23304;SDS011;11821;51.456;8.844;2023-11-19T11:28:42;16.65;;;3.15;;
23304;SDS011;11821;51.456;8.844;2023-11-19T11:36:30;11.73;;;2.47;;
23304;SDS011;11821;51.456;8.844;2023-11-19T11:38:58;9.55;;;2.05;;
23304;SDS011;11821;51.456;8.844;2023-11-19T11:41:26;22.88;;;2.95;;
23304;SDS011;11821;51.456;8.844;2023-11-19T11:43:52;15.27;;;2.75;;
23304;SDS011;11821;51.456;8.844;2023-11-19T11:49:02;12.95;;;2.53;;
23304;SDS011;11821;51.456;8.844;2023-11-19T11:54:11;19.55;;;3.20;;
23304;SDS011;11821;51.456;8.844;2023-11-19T11:56:37;13.18;;;2.60;;
23304;SDS011;11821;51.456;8.844;2023-11-19T11:59:07;12.80;;;2.47;;
23304;SDS011;11821;51.456;8.844;2023-11-19T12:01:34;20.42;;;2.42;;
23304;SDS011;11821;51.456;8.844;2023-11-19T12:04:01;17.95;;;2.85;;
23304;SDS011;11821;51.456;8.844;2023-11-19T12:06:28;11.20;;;3.25;;
23304;SDS011;11821;51.456;8.844;2023-11-19T12:08:59;12.88;;;3.58;;
23304;SDS011;11821;51.456;8.844;2023-11-19T12:11:26;21.15;;;2.90;;
23304;SDS011;11821;51.456;8.844;2023-11-19T12:13:54;14.98;;;3.15;;
23304;SDS011;11821;51.456;8.844;2023-11-19T12:16:27;18.38;;;3.17;;
23304;SDS011;11821;51.456;8.844;2023-11-19T12:18:54;15.63;;;2.13;;
23304;SDS011;11821;51.456;8.844;2023-11-19T12:21:30;22.70;;;2.92;;
23304;SDS011;11821;51.456;8.844;2023-11-19T12:23:58;8.98;;;2.08;;
23304;SDS011;11821;51.456;8.844;2023-11-19T12:26:39;16.08;;;3.22;;
23304;SDS011;11821;51.456;8.844;2023-11-19T12:29:06;16.30;;;2.58;;
23304;SDS011;11821;51.456;8.844;2023-11-19T12:31:33;9.80;;;2.42;;
23304;SDS011;11821;51.456;8.844;2023-11-19T12:34:04;18.63;;;3.08;;
23304;SDS011;11821;51.456;8.844;2023-11-19T12:36:31;17.65;;;3.17;;
23304;SDS011;11821;51.456;8.844;2023-11-19T12:38:58;14.45;;;2.97;;
23304;SDS011;11821;51.456;8.844;2023-11-19T12:41:26;20.92;;;2.85;;
23304;SDS011;11821;51.456;8.844;2023-11-19T12:43:52;14.73;;;2.25;;
23304;SDS011;11821;51.456;8.844;2023-11-19T12:46:22;15.48;;;2.45;;
23304;SDS011;11821;51.456;8.844;2023-11-19T12:48:49;17.50;;;3.15;;
23304;SDS011;11821;51.456;8.844;2023-11-19T12:51:16;8.82;;;2.13;;
23304;SDS011;11821;51.456;8.844;2023-11-19T12:56:16;16.88;;;2.42;;
23304;SDS011;11821;51.456;8.844;2023-11-19T12:58:42;13.45;;;2.45;;
23304;SDS011;11821;51.456;8.844;2023-11-19T13:01:09;12.20;;;2.40;;
23304;SDS011;11821;51.456;8.844;2023-11-19T13:03:36;21.23;;;3.08;;
23304;SDS011;11821;51.456;8.844;2023-11-19T13:06:07;16.02;;;2.83;;
23304;SDS011;11821;51.456;8.844;2023-11-19T13:11:03;12.45;;;2.15;;
23304;SDS011;11821;51.456;8.844;2023-11-19T13:13:31;17.17;;;2.55;;
23304;SDS011;11821;51.456;8.844;2023-11-19T13:16:04;14.27;;;2.78;;
23304;SDS011;11821;51.456;8.844;2023-11-19T13:18:31;13.32;;;2.60;;
23304;SDS011;11821;51.456;8.844;2023-11-19T13:20:58;10.68;;;2.00;;
23304;SDS011;11821;51.456;8.844;2023-11-19T13:23:24;24.23;;;4.03;;
23304;SDS011;11821;51.456;8.844;2023-11-19T13:25:51;16.85;;;2.83;;
23304;SDS011;11821;51.456;8.844;2023-11-19T13:28:17;13.00;;;2.15;;
23304;SDS011;11821;51.456;8.844;2023-11-19T13:30:44;19.90;;;2.67;;
23304;SDS011;11821;51.456;8.844;2023-11-19T13:33:10;17.02;;;2.55;;
23304;SDS011;11821;51.456;8.844;2023-11-19T13:35:38;15.25;;;2.67;;
23304;SDS011;11821;51.456;8.844;2023-11-19T13:38:07;15.27;;;3.00;;
23304;SDS011;11821;51.456;8.844;2023-11-19T13:40:34;10.48;;;2.90;;
23304;SDS011;11821;51.456;8.844;2023-11-19T13:43:01;16.83;;;2.58;;
23304;SDS011;11821;51.456;8.844;2023-11-19T13:45:27;16.42;;;2.42;;
23304;SDS011;11821;51.456;8.844;2023-11-19T13:47:54;12.27;;;2.65;;
23304;SDS011;11821;51.456;8.844;2023-11-19T13:50:20;18.10;;;2.92;;
23304;SDS011;11821;51.456;8.844;2023-11-19T13:52:48;11.10;;;3.30;;
23304;SDS011;11821;51.456;8.844;2023-11-19T13:55:14;17.50;;;3.33;;
23304;SDS011;11821;51.456;8.844;2023-11-19T13:57:42;12.82;;;2.20;;
23304;SDS011;11821;51.456;8.844;2023-11-19T14:00:12;16.13;;;2.35;;
23304;SDS011;11821;51.456;8.844;2023-11-19T14:02:39;10.20;;;1.95;;
23304;SDS011;11821;51.456;8.844;2023-11-19T14:05:06;16.80;;;2.90;;
23304;SDS011;11821;51.456;8.844;2023-11-19T14:07:33;9.35;;;2.55;;
23304;SDS011;11821;51.456;8.844;2023-11-19T14:09:59;9.60;;;2.80;;
23304;SDS011;11821;51.456;8.844;2023-11-19T14:12:26;12.95;;;2.53;;
23304;SDS011;11821;51.456;8.844;2023-11-19T14:14:52;10.13;;;2.50;;
23304;SDS011;11821;51.456;8.844;2023-11-19T14:17:20;13.02;;;2.40;;
23304;SDS011;11821;51.456;8.844;2023-11-19T14:19:46;12.65;;;2.90;;
23304;SDS011;11821;51.456;8.844;2023-11-19T14:22:13;14.27;;;2.58;;
23304;SDS011;11821;51.456;8.844;2023-11-19T14:24:39;12.32;;;2.70;;
23304;SDS011;11821;51.456;8.844;2023-11-19T14:27:07;20.23;;;3.03;;
23304;SDS011;11821;51.456;8.844;2023-11-19T14:29:34;11.40;;;2.08;;
23304;SDS011;11821;51.456;8.844;2023-11-19T14:32:01;16.90;;;2.67;;
23304;SDS011;11821;51.456;8.844;2023-11-19T14:34:31;8.82;;;3.30;;
23304;SDS011;11821;51.456;8.844;2023-11-19T14:36:58;12.13;;;2.50;;
23304;SDS011;11821;51.456;8.844;2023-11-19T14:39:26;15.93;;;2.30;;
23304;SDS011;11821;51.456;8.844;2023-11-19T14:41:52;13.70;;;2.70;;
23304;SDS011;11821;51.456;8.844;2023-11-19T14:44:23;6.90;;;2.00;;
23304;SDS011;11821;51.456;8.844;2023-11-19T14:46:49;18.30;;;2.10;;
23304;SDS011;11821;51.456;8.844;2023-11-19T14:49:16;5.78;;;1.92;;
23304;SDS011;11821;51.456;8.844;2023-11-19T14:51:42;12.18;;;2.10;;
23304;SDS011;11821;51.456;8.844;2023-11-19T14:54:09;13.18;;;2.03;;
23304;SDS011;11821;51.456;8.844;2023-11-19T14:56:35;11.95;;;1.80;;
23304;SDS011;11821;51.456;8.844;2023-11-19T14:59:03;11.85;;;2.10;;
23304;SDS011;11821;51.456;8.844;2023-11-19T15:01:30;9.98;;;1.83;;
23304;SDS011;11821;51.456;8.844;2023-11-19T15:03:56;7.75;;;2.35;;